Time;durP1;ratioP1;P1;durP2;ratioP2;P2;SDS_P1;SDS_P2;PMS_P1;PMS_P2;Temp;Humidity;BMP_temperature;BMP_pressure;BME280_temperature;BME280_humidity;BME280_pressure;Samples;Min_cycle;Max_cycle;Signal;HPM_P1;HPM_P2
2022/01/12 00:01:38;;;;;;;7.22;4.88;;;10.80;89.60;;;;;;5055338;28;20051;-72
2022/01/12 00:04:04;;;;;;;9.63;5.20;;;10.80;89.50;;;;;;5055509;28;20051;-72
2022/01/12 00:06:30;;;;;;;9.73;5.35;;;10.80;89.30;;;;;;5055277;28;20522;-72
2022/01/12 00:08:56;;;;;;;9.50;4.72;;;10.80;89.60;;;;;;5055467;28;20025;-72
2022/01/12 00:11:22;;;;;;;10.23;5.35;;;10.80;89.30;;;;;;5053957;28;20029;-72
2022/01/12 00:13:51;;;;;;;10.60;5.38;;;10.80;89.40;;;;;;5053874;28;20444;-72
2022/01/12 00:16:17;;;;;;;8.68;4.82;;;10.80;89.60;;;;;;5055052;28;20024;-72
2022/01/12 00:18:45;;;;;;;12.05;5.10;;;10.80;89.70;;;;;;5053801;28;20473;-72
2022/01/12 00:21:12;;;;;;;9.95;5.03;;;10.80;89.50;;;;;;5054605;28;20068;-72
2022/01/12 00:23:39;;;;;;;11.25;5.07;;;10.80;89.50;;;;;;5040336;28;20049;-72
2022/01/12 00:26:08;;;;;;;8.60;4.53;;;10.80;89.50;;;;;;5054787;28;20112;-72
2022/01/12 00:34:06;;;;;;;8.77;5.53;;;10.80;89.40;;;;;;5054662;28;20031;-72
2022/01/12 00:36:33;;;;;;;9.68;5.40;;;10.80;89.30;;;;;;5053264;28;20071;-72
2022/01/12 00:39:00;;;;;;;11.48;5.90;;;10.80;89.80;;;;;;5054434;28;20575;-72
2022/01/12 00:41:26;;;;;;;9.52;5.93;;;10.70;89.50;;;;;;5052612;28;20064;-72
2022/01/12 00:43:57;;;;;;;12.27;5.53;;;10.80;89.60;;;;;;5054512;28;20025;-72
2022/01/12 00:46:25;;;;;;;10.13;5.30;;;10.70;89.60;;;;;;5054475;28;20406;-72
2022/01/12 00:48:53;;;;;;;9.35;5.95;;;10.80;89.60;;;;;;5054508;28;20029;-72
2022/01/12 00:51:19;;;;;;;8.23;5.22;;;10.80;89.70;;;;;;5053064;28;20464;-72
2022/01/12 00:53:45;;;;;;;9.93;6.05;;;10.80;89.60;;;;;;5054013;28;20052;-72
2022/01/12 00:56:10;;;;;;;10.35;5.85;;;10.70;89.90;;;;;;5053579;28;20049;-72
2022/01/12 00:58:36;;;;;;;9.45;5.28;;;10.80;89.90;;;;;;5052822;28;20029;-72
2022/01/12 01:01:03;;;;;;;8.50;5.57;;;10.80;89.60;;;;;;5054286;28;20067;-72
2022/01/12 01:03:29;;;;;;;10.75;5.60;;;10.80;89.60;;;;;;5050648;28;20025;-72
2022/01/12 01:05:56;;;;;;;10.15;4.95;;;10.70;89.80;;;;;;5053890;28;20032;-72
2022/01/12 01:08:22;;;;;;;14.73;5.65;;;10.80;89.70;;;;;;5052357;28;20021;-72
2022/01/12 01:10:50;;;;;;;9.27;5.05;;;10.70;89.80;;;;;;5053946;28;20072;-72
2022/01/12 01:13:22;;;;;;;11.23;5.07;;;10.80;90.00;;;;;;5054134;28;20028;-72
2022/01/12 01:26:29;;;;;;;10.95;5.82;;;10.80;89.60;;;;;;5053422;28;20087;-72
2022/01/12 01:28:55;;;;;;;9.15;5.30;;;10.80;89.60;;;;;;5053635;28;20030;-72
2022/01/12 01:31:27;;;;;;;7.35;4.40;;;10.80;89.70;;;;;;5052684;28;20037;-72
2022/01/12 01:33:53;;;;;;;7.50;4.93;;;10.70;89.50;;;;;;5053835;28;20570;-72
2022/01/12 01:36:19;;;;;;;10.13;5.32;;;10.70;89.50;;;;;;5053725;28;20112;-72
2022/01/12 01:38:44;;;;;;;9.70;5.70;;;10.60;89.40;;;;;;5052968;28;20056;-72
2022/01/12 01:41:10;;;;;;;9.70;6.03;;;10.60;89.60;;;;;;5053132;28;20135;-72
2022/01/12 01:55:07;;;;;;;10.73;6.07;;;10.60;89.80;;;;;;4959089;28;20465;-69
2022/01/12 01:57:33;;;;;;;12.05;7.00;;;10.50;89.70;;;;;;4958271;28;20082;-69
2022/01/12 02:00:00;;;;;;;12.30;6.65;;;10.50;89.70;;;;;;4972544;28;20023;-69
2022/01/12 02:02:26;;;;;;;9.77;5.82;;;10.50;89.80;;;;;;4969421;28;20058;-69
2022/01/12 02:04:51;;;;;;;10.80;6.53;;;10.40;90.00;;;;;;4962409;28;20453;-69
2022/01/12 02:07:17;;;;;;;9.52;5.95;;;10.40;90.10;;;;;;4960002;28;20061;-69
2022/01/12 02:09:42;;;;;;;12.52;6.45;;;10.50;90.10;;;;;;4957913;28;20062;-69
2022/01/12 02:12:09;;;;;;;9.05;6.25;;;10.50;89.80;;;;;;4960921;28;20035;-69
2022/01/12 02:14:35;;;;;;;10.95;6.70;;;10.40;90.10;;;;;;4961838;28;20035;-69
2022/01/12 02:17:06;;;;;;;10.02;6.18;;;10.40;90.10;;;;;;4960574;28;20126;-69
2022/01/12 02:19:54;;;;;;;9.57;6.10;;;10.50;90.10;;;;;;4961807;28;20480;-69
2022/01/12 02:36:14;;;;;;;7.35;4.60;;;10.50;90.10;;;;;;4969331;28;20058;-69
2022/01/12 02:41:25;;;;;;;7.80;4.85;;;10.40;90.10;;;;;;4961948;28;20070;-69
2022/01/12 02:54:46;;;;;;;9.63;5.03;;;10.50;90.30;;;;;;4970503;28;20031;-69
2022/01/12 02:57:12;;;;;;;8.05;4.90;;;10.50;90.20;;;;;;4959931;28;20027;-69
2022/01/12 02:59:50;;;;;;;8.60;4.63;;;10.30;89.50;;;;;;4961708;28;20027;-69
2022/01/12 03:04:51;;;;;;;6.05;3.30;;;10.30;90.40;;;;;;4958075;28;20106;-69
2022/01/12 03:07:20;;;;;;;6.25;3.20;;;10.40;90.40;;;;;;4972514;28;20058;-69
2022/01/12 03:09:45;;;;;;;6.50;3.40;;;10.40;90.20;;;;;;4957114;28;20038;-69
2022/01/12 03:12:11;;;;;;;8.27;3.67;;;10.40;90.20;;;;;;4959796;28;20031;-69
2022/01/12 03:14:37;;;;;;;6.65;3.60;;;10.40;90.30;;;;;;4959957;28;20031;-69
2022/01/12 03:17:03;;;;;;;4.68;3.33;;;10.40;90.20;;;;;;4961559;28;20121;-68
2022/01/12 03:19:28;;;;;;;5.30;3.35;;;10.50;90.30;;;;;;4960895;28;20493;-69
2022/01/12 03:21:54;;;;;;;5.85;3.65;;;10.40;90.20;;;;;;4957006;28;20058;-69
2022/01/12 03:24:19;;;;;;;8.10;3.92;;;10.40;90.30;;;;;;4958837;28;20109;-69
2022/01/12 03:26:45;;;;;;;6.28;3.92;;;10.50;90.30;;;;;;4961139;28;20034;-69
2022/01/12 03:29:11;;;;;;;5.05;3.80;;;10.50;90.30;;;;;;4961386;28;20102;-69
2022/01/12 03:31:36;;;;;;;6.35;3.75;;;10.50;90.20;;;;;;4961486;28;20133;-69
2022/01/12 03:39:08;;;;;;;6.60;4.28;;;10.60;90.30;;;;;;4959777;28;20122;-69
2022/01/12 03:41:35;;;;;;;9.25;4.68;;;10.50;90.20;;;;;;4961104;28;20031;-69
2022/01/12 03:44:04;;;;;;;7.47;4.20;;;10.50;90.30;;;;;;4960500;28;20023;-69
2022/01/12 03:46:34;;;;;;;7.93;4.20;;;10.60;90.30;;;;;;4972030;28;20050;-70
2022/01/12 03:49:00;;;;;;;8.35;5.00;;;10.50;90.10;;;;;;4956737;28;20497;-70
2022/01/12 03:51:26;;;;;;;8.63;4.72;;;10.60;90.20;;;;;;4968276;28;20066;-70
2022/01/12 03:53:52;;;;;;;7.72;4.80;;;10.60;90.40;;;;;;4961659;28;20072;-70
2022/01/12 03:56:17;;;;;;;9.82;5.00;;;10.60;90.20;;;;;;4963729;28;20024;-70
2022/01/12 03:58:43;;;;;;;7.65;4.22;;;10.50;90.20;;;;;;4964504;28;20106;-70
2022/01/12 04:01:09;;;;;;;7.13;4.13;;;10.50;90.30;;;;;;4961130;28;20506;-70
2022/01/12 04:03:40;;;;;;;7.68;4.88;;;10.50;90.40;;;;;;4960161;28;20446;-70
2022/01/12 04:08:50;;;;;;;7.72;4.60;;;10.50;90.20;;;;;;4965311;28;20117;-70
2022/01/12 04:11:16;;;;;;;8.27;4.22;;;10.40;90.30;;;;;;4962299;28;20478;-70
2022/01/12 04:13:43;;;;;;;8.05;4.70;;;10.40;90.30;;;;;;4964358;28;20051;-70
2022/01/12 04:16:11;;;;;;;8.27;4.88;;;10.40;90.50;;;;;;4960839;28;20030;-70
2022/01/12 04:18:37;;;;;;;8.13;4.47;;;10.40;90.40;;;;;;4959787;28;20050;-70
2022/01/12 04:21:07;;;;;;;6.20;3.97;;;10.30;90.40;;;;;;4970223;28;20025;-68
2022/01/12 04:23:35;;;;;;;6.05;3.65;;;10.30;90.50;;;;;;4967237;28;20137;-70
2022/01/12 04:26:08;;;;;;;6.47;3.97;;;10.40;90.60;;;;;;4963703;28;20516;-70
2022/01/12 04:28:35;;;;;;;6.97;4.13;;;10.40;90.50;;;;;;4963963;28;20444;-70
2022/01/12 04:31:00;;;;;;;5.93;4.13;;;10.40;90.50;;;;;;4959625;28;20030;-68
2022/01/12 04:33:28;;;;;;;6.43;3.80;;;10.40;90.50;;;;;;4971297;28;20085;-70
2022/01/12 04:35:55;;;;;;;6.63;4.28;;;10.30;90.50;;;;;;4964054;28;20500;-70
2022/01/12 04:38:23;;;;;;;6.38;4.30;;;10.30;90.50;;;;;;4963494;28;20023;-70
2022/01/12 04:40:50;;;;;;;6.93;4.38;;;10.40;90.60;;;;;;4963776;28;20039;-70
2022/01/12 04:43:17;;;;;;;6.25;4.05;;;10.40;90.60;;;;;;4961260;28;20058;-70
2022/01/12 04:48:34;;;;;;;;;;;10.40;90.70;;;;;;4962066;28;20039;-69
2022/01/12 04:50:59;;;;;;;7.72;4.38;;;10.40;90.40;;;;;;4963048;28;20444;-70
2022/01/12 04:53:25;;;;;;;7.82;4.50;;;10.40;90.60;;;;;;4963286;28;20039;-68
2022/01/12 04:55:52;;;;;;;8.77;5.15;;;10.40;90.60;;;;;;4963644;28;20035;-69
2022/01/12 04:58:19;;;;;;;7.70;4.90;;;10.40;90.60;;;;;;4961468;28;20076;-69
2022/01/12 05:00:47;;;;;;;9.32;4.88;;;10.40;90.60;;;;;;4958875;28;20458;-69
2022/01/12 05:08:53;;;;;;;8.90;5.30;;;10.30;90.60;;;;;;4962998;28;20093;-69
2022/01/12 05:14:03;;;;;;;10.63;5.40;;;10.30;90.70;;;;;;4963309;28;20051;-69
2022/01/12 05:16:29;;;;;;;8.90;5.05;;;10.20;90.50;;;;;;4960931;28;20528;-69
2022/01/12 05:18:56;;;;;;;8.45;5.28;;;10.10;90.60;;;;;;4958664;28;20035;-69
2022/01/12 05:21:23;;;;;;;7.45;5.43;;;10.10;90.80;;;;;;4960202;28;20035;-69
2022/01/12 05:23:49;;;;;;;8.27;5.18;;;10.20;91.10;;;;;;4962661;28;20059;-69
2022/01/12 05:26:15;;;;;;;10.32;5.93;;;10.20;90.90;;;;;;4963019;28;20028;-69
2022/01/12 05:28:41;;;;;;;10.68;5.63;;;10.10;90.90;;;;;;4944716;28;20047;-69
2022/01/12 05:31:09;;;;;;;11.27;6.07;;;10.00;90.90;;;;;;4973749;28;20104;-69
2022/01/12 05:33:36;;;;;;;9.48;5.55;;;9.80;90.90;;;;;;4958589;28;20480;-69
2022/01/12 05:36:05;;;;;;;9.20;5.95;;;9.90;91.40;;;;;;4962308;28;20097;-69
2022/01/12 05:38:32;;;;;;;11.10;5.53;;;10.00;91.50;;;;;;4962599;28;20393;-69
2022/01/12 05:41:05;;;;;;;9.65;5.90;;;10.10;91.50;;;;;;4961684;28;20026;-69
2022/01/12 05:43:33;;;;;;;10.38;6.15;;;10.20;91.40;;;;;;4973582;28;20030;-69
2022/01/12 05:46:09;;;;;;;12.82;7.60;;;10.00;90.90;;;;;;4958024;28;20078;-69
2022/01/12 05:51:20;;;;;;;11.75;5.55;;;9.90;91.50;;;;;;4969404;28;20103;-69
2022/01/12 05:53:45;;;;;;;8.65;5.57;;;10.10;91.50;;;;;;4963950;28;20035;-69
2022/01/12 05:56:11;;;;;;;12.35;6.63;;;10.10;91.50;;;;;;4962630;28;20038;-69
2022/01/12 05:58:37;;;;;;;10.70;6.20;;;10.10;91.30;;;;;;4962523;28;20034;-69
2022/01/12 06:01:03;;;;;;;10.18;5.63;;;10.10;91.30;;;;;;4958259;28;20031;-69
2022/01/12 06:03:28;;;;;;;11.50;6.28;;;10.10;91.40;;;;;;4958936;28;20409;-69
2022/01/12 06:05:54;;;;;;;10.50;5.90;;;9.90;91.10;;;;;;4961903;28;20027;-69
2022/01/12 06:08:19;;;;;;;10.77;5.40;;;9.90;91.40;;;;;;4962194;28;20044;-69
2022/01/12 06:10:45;;;;;;;11.40;6.30;;;9.80;91.40;;;;;;4961927;28;20059;-69
2022/01/12 06:13:11;;;;;;;9.63;5.30;;;9.80;91.60;;;;;;4955471;28;20114;-69
2022/01/12 06:15:36;;;;;;;10.95;6.07;;;9.80;91.80;;;;;;4973290;28;20022;-69
2022/01/12 06:18:02;;;;;;;8.77;5.45;;;9.70;91.60;;;;;;4961301;28;20525;-69
2022/01/12 06:20:28;;;;;;;8.38;4.93;;;9.70;91.70;;;;;;4964484;28;20388;-70
2022/01/12 06:22:53;;;;;;;7.95;5.30;;;9.80;91.90;;;;;;4950236;28;20036;-69
2022/01/12 06:25:19;;;;;;;7.65;4.63;;;9.80;91.80;;;;;;4952971;28;20027;-70
2022/01/12 06:27:52;;;;;;;6.25;3.83;;;9.80;91.60;;;;;;4973110;28;20118;-71
2022/01/12 06:32:55;;;;;;;6.95;3.90;;;10.00;91.80;;;;;;4961879;28;20047;-73
2022/01/12 06:35:21;;;;;;;6.30;4.00;;;10.10;91.60;;;;;;4961387;28;20162;-73
2022/01/12 06:37:47;;;;;;;7.25;3.90;;;10.10;91.50;;;;;;4961898;28;20046;-74
2022/01/12 06:40:14;;;;;;;5.55;3.83;;;10.10;91.20;;;;;;4940528;28;20516;-74
2022/01/12 06:42:40;;;;;;;6.30;4.07;;;10.10;91.30;;;;;;4957400;28;20031;-78
2022/01/12 06:45:07;;;;;;;6.63;4.05;;;10.00;91.10;;;;;;4960515;28;20043;-70
2022/01/12 06:47:32;;;;;;;10.02;6.18;;;10.00;91.30;;;;;;4961799;28;20519;-70
2022/01/12 06:49:58;;;;;;;13.43;6.68;;;10.00;91.50;;;;;;4959904;28;20023;-70
2022/01/12 06:52:24;;;;;;;9.95;6.13;;;10.00;91.40;;;;;;4960290;28;20175;-70
2022/01/12 06:54:49;;;;;;;10.57;6.55;;;10.00;91.50;;;;;;4957198;28;20030;-70
2022/01/12 06:57:16;;;;;;;11.25;6.03;;;10.10;91.60;;;;;;4959801;28;20398;-69
2022/01/12 06:59:42;;;;;;;9.55;5.43;;;10.10;91.60;;;;;;4966144;28;20047;-70
2022/01/12 07:02:07;;;;;;;8.80;5.25;;;10.10;91.30;;;;;;4968204;28;20509;-69
2022/01/12 07:04:33;;;;;;;9.00;5.13;;;10.10;91.00;;;;;;4938569;28;20516;-69
2022/01/12 07:06:59;;;;;;;7.15;4.47;;;10.00;91.20;;;;;;4955337;28;20039;-69
2022/01/12 07:09:24;;;;;;;6.90;4.47;;;9.90;91.50;;;;;;4972461;28;20114;-69
2022/01/12 07:11:50;;;;;;;6.53;4.03;;;9.90;91.10;;;;;;4947829;29;20054;-69
2022/01/12 07:14:16;;;;;;;5.90;4.18;;;9.90;91.40;;;;;;4962887;28;20444;-69
2022/01/12 07:16:42;;;;;;;7.93;3.88;;;9.80;90.80;;;;;;4971579;28;20038;-69
2022/01/12 07:19:08;;;;;;;4.68;2.92;;;9.60;91.20;;;;;;4957859;28;20069;-69
2022/01/12 07:21:34;;;;;;;4.38;3.08;;;9.70;91.50;;;;;;4957341;28;20042;-69
2022/01/12 07:23:59;;;;;;;5.05;3.20;;;9.60;91.10;;;;;;4961509;28;20477;-69
2022/01/12 07:26:25;;;;;;;5.38;3.05;;;9.50;91.10;;;;;;4961606;28;20027;-69
2022/01/12 07:28:51;;;;;;;4.95;3.30;;;9.50;91.40;;;;;;4961773;28;20026;-69
2022/01/12 07:31:17;;;;;;;4.32;2.72;;;9.60;91.60;;;;;;4962311;28;20578;-69
2022/01/12 07:33:42;;;;;;;4.88;3.03;;;9.50;91.20;;;;;;4960423;28;20516;-69
2022/01/12 07:36:08;;;;;;;4.20;2.80;;;9.50;91.20;;;;;;4964254;28;20106;-69
2022/01/12 07:38:34;;;;;;;4.05;2.40;;;9.50;91.40;;;;;;4968690;28;20404;-70
2022/01/12 07:40:59;;;;;;;3.60;2.55;;;9.60;91.80;;;;;;4972697;28;20476;-69
2022/01/12 07:43:25;;;;;;;3.20;2.35;;;9.70;91.60;;;;;;4961849;28;20031;-70
2022/01/12 07:45:51;;;;;;;4.25;2.80;;;9.80;91.40;;;;;;4973768;28;20119;-69
2022/01/12 07:48:17;;;;;;;4.28;2.92;;;9.80;91.20;;;;;;4975595;28;20444;-69
2022/01/12 07:50:44;;;;;;;4.38;3.05;;;9.80;91.00;;;;;;4974238;28;20038;-69
2022/01/12 07:53:10;;;;;;;3.38;2.40;;;9.50;90.50;;;;;;4973923;28;20027;-70
2022/01/12 07:55:36;;;;;;;3.95;2.70;;;9.60;91.30;;;;;;4973362;28;20078;-69
2022/01/12 07:58:02;;;;;;;3.80;2.50;;;9.70;91.30;;;;;;4972064;28;20066;-69
2022/01/12 08:00:28;;;;;;;3.42;2.10;;;9.70;91.30;;;;;;4974402;28;20110;-69
2022/01/12 08:02:54;;;;;;;3.75;2.35;;;9.80;91.00;;;;;;4973407;28;20110;-69
2022/01/12 08:05:20;;;;;;;3.67;2.50;;;9.70;91.00;;;;;;4973751;28;20469;-70
2022/01/12 08:07:49;;;;;;;4.18;2.80;;;9.70;90.90;;;;;;4973413;28;20038;-69
2022/01/12 08:10:16;;;;;;;3.85;2.25;;;9.70;90.80;;;;;;4973335;28;20520;-69
2022/01/12 08:12:42;;;;;;;3.40;2.47;;;9.60;90.80;;;;;;4973288;28;21282;-69
2022/01/12 08:15:09;;;;;;;3.70;2.60;;;9.60;91.00;;;;;;4973639;28;20035;-69
2022/01/12 08:17:36;;;;;;;3.28;2.30;;;9.60;91.00;;;;;;4973185;28;20031;-69
2022/01/12 08:20:04;;;;;;;5.45;2.80;;;9.70;91.10;;;;;;4972441;28;20109;-69
2022/01/12 08:22:30;;;;;;;3.30;2.28;;;9.60;90.40;;;;;;4973504;28;20014;-70
2022/01/12 08:24:56;;;;;;;3.65;2.50;;;9.40;90.50;;;;;;4955596;28;20038;-69
2022/01/12 08:27:22;;;;;;;3.65;2.47;;;9.30;91.00;;;;;;4973837;28;20130;-69
2022/01/12 08:29:50;;;;;;;2.90;2.00;;;9.40;91.10;;;;;;4973000;28;20030;-69
2022/01/12 08:32:16;;;;;;;3.83;2.50;;;9.40;91.20;;;;;;4972901;28;20034;-69
2022/01/12 08:34:42;;;;;;;4.22;2.53;;;9.50;91.10;;;;;;4956468;28;20065;-69
2022/01/12 08:37:07;;;;;;;3.90;2.72;;;9.20;90.60;;;;;;4971958;28;20092;-69
2022/01/12 08:39:33;;;;;;;3.95;2.63;;;9.20;91.10;;;;;;4973760;28;20026;-69
2022/01/12 08:41:59;;;;;;;4.18;2.85;;;9.20;91.20;;;;;;4972595;28;20529;-70
2022/01/12 08:44:24;;;;;;;2.88;2.00;;;9.10;91.10;;;;;;4973243;28;20035;-69
2022/01/12 08:46:50;;;;;;;2.92;2.20;;;9.20;91.50;;;;;;4972791;28;20051;-70
2022/01/12 08:49:15;;;;;;;3.70;2.28;;;9.20;91.20;;;;;;4973396;28;20023;-70
2022/01/12 08:51:41;;;;;;;3.42;2.20;;;9.10;91.10;;;;;;4973177;28;20497;-70
2022/01/12 08:54:07;;;;;;;3.55;2.47;;;9.20;91.60;;;;;;4965257;28;20019;-69
2022/01/12 08:56:35;;;;;;;2.80;2.22;;;9.20;91.20;;;;;;4970342;28;20035;-68
2022/01/12 08:59:01;;;;;;;4.55;2.00;;;9.20;91.20;;;;;;4944363;28;20122;-69
2022/01/12 09:01:26;;;;;;;3.92;2.55;;;9.10;91.00;;;;;;4967009;28;20098;-68
2022/01/12 09:03:52;;;;;;;4.53;2.47;;;9.00;91.10;;;;;;4972718;28;20489;-69
2022/01/12 09:06:18;;;;;;;3.83;2.50;;;8.90;91.20;;;;;;4974292;28;20030;-69
2022/01/12 09:08:45;;;;;;;3.55;2.47;;;9.00;91.60;;;;;;4967581;28;20035;-69
2022/01/12 09:11:11;;;;;;;3.50;2.30;;;9.20;91.90;;;;;;4971879;28;20042;-69
2022/01/12 09:13:37;;;;;;;2.95;1.92;;;9.20;91.50;;;;;;4972882;28;20582;-69
2022/01/12 09:16:06;;;;;;;2.97;2.15;;;9.40;91.70;;;;;;4972399;28;20145;-69
2022/01/12 09:18:36;;;;;;;3.67;2.40;;;9.40;91.30;;;;;;4971946;28;20456;-69
2022/01/12 09:21:03;;;;;;;3.55;2.28;;;9.40;91.50;;;;;;4962097;28;20035;-69
2022/01/12 09:23:29;;;;;;;3.60;2.40;;;9.60;91.40;;;;;;4962451;28;20031;-69
2022/01/12 09:25:55;;;;;;;3.58;2.40;;;9.60;91.40;;;;;;4960398;28;20541;-68
2022/01/12 09:28:21;;;;;;;3.00;2.50;;;9.60;90.90;;;;;;4973133;28;20492;-69
2022/01/12 09:30:47;;;;;;;4.32;2.60;;;9.60;91.20;;;;;;4973454;28;20038;-68
2022/01/12 09:33:13;;;;;;;4.72;3.08;;;9.60;90.90;;;;;;4958936;28;20409;-68
2022/01/12 09:35:38;;;;;;;3.97;2.72;;;9.50;90.60;;;;;;4970209;28;20078;-68
2022/01/12 09:38:04;;;;;;;4.55;2.80;;;9.30;90.50;;;;;;4973293;28;20022;-69
2022/01/12 09:40:30;;;;;;;3.45;2.45;;;9.30;91.20;;;;;;4973476;28;20026;-69
2022/01/12 09:43:02;;;;;;;3.53;2.40;;;9.40;91.40;;;;;;4972961;28;20101;-69
2022/01/12 09:45:28;;;;;;;2.92;2.33;;;9.50;91.20;;;;;;4958876;28;20572;-69
2022/01/12 09:47:53;;;;;;;2.80;1.90;;;9.50;91.00;;;;;;4962174;28;20104;-68
2022/01/12 09:50:22;;;;;;;4.00;2.40;;;9.50;90.70;;;;;;4961894;28;20027;-69
2022/01/12 09:52:49;;;;;;;2.97;2.00;;;9.30;90.70;;;;;;4966753;28;20039;-69
2022/01/12 09:55:15;;;;;;;4.00;1.73;;;9.30;90.70;;;;;;4959282;28;20019;-69
2022/01/12 09:57:41;;;;;;;3.13;1.67;;;9.10;90.50;;;;;;4957190;28;20078;-69
2022/01/12 10:00:08;;;;;;;3.30;1.95;;;9.10;91.10;;;;;;4964267;28;20037;-68
2022/01/12 10:02:34;;;;;;;4.63;2.03;;;9.10;91.00;;;;;;4964939;28;20404;-68
2022/01/12 10:05:08;;;;;;;3.20;2.40;;;9.10;91.10;;;;;;4961887;28;20550;-69
2022/01/12 10:07:34;;;;;;;3.33;2.15;;;9.10;91.00;;;;;;4961512;28;20034;-69
2022/01/12 10:10:04;;;;;;;2.83;2.25;;;8.90;90.80;;;;;;4961028;28;20031;-69
2022/01/12 10:12:31;;;;;;;2.55;1.50;;;9.10;91.60;;;;;;4968851;28;20046;-69
2022/01/12 10:15:00;;;;;;;2.53;1.50;;;9.20;91.50;;;;;;4967265;28;20404;-69
2022/01/12 10:17:32;;;;;;;2.67;1.50;;;9.30;91.40;;;;;;4965310;28;20493;-69
2022/01/12 10:20:19;;;;;;;3.03;1.70;;;9.40;91.30;;;;;;4964471;28;20522;-69
2022/01/12 10:23:08;;;;;;;2.28;1.42;;;9.50;91.20;;;;;;4971040;28;20027;-69
2022/01/12 10:25:35;;;;;;;1.85;1.30;;;9.50;90.90;;;;;;4953745;28;20038;-69
2022/01/12 10:28:14;;;;;;;1.50;1.10;;;9.60;91.00;;;;;;4956458;28;20049;-69
2022/01/12 10:30:50;;;;;;;6.72;3.92;;;9.70;90.90;;;;;;4953994;28;20023;-69
2022/01/12 10:33:15;;;;;;;2.35;1.67;;;9.80;90.80;;;;;;4960069;28;20074;-69
2022/01/12 10:35:41;;;;;;;3.78;1.92;;;9.70;90.70;;;;;;4970278;28;20058;-69
2022/01/12 10:38:09;;;;;;;2.33;1.50;;;9.80;90.90;;;;;;4968083;28;20039;-69
2022/01/12 10:40:59;;;;;;;3.22;1.67;;;9.80;90.60;;;;;;4960997;28;20378;-69
2022/01/12 10:43:29;;;;;;;2.17;1.45;;;9.90;90.70;;;;;;4959802;28;20018;-69
2022/01/12 10:45:56;;;;;;;2.10;1.45;;;9.90;90.60;;;;;;4956303;28;20129;-69
2022/01/12 10:48:23;;;;;;;2.20;1.55;;;9.80;90.10;;;;;;4958995;28;20062;-69
2022/01/12 10:50:56;;;;;;;2.47;1.27;;;9.90;91.10;;;;;;4970624;28;20106;-69
2022/01/12 10:53:28;;;;;;;1.75;1.30;;;10.00;90.80;;;;;;4965451;28;20119;-68
2022/01/12 10:56:21;;;;;;;1.63;1.33;;;9.90;90.30;;;;;;4967397;28;20031;-68
2022/01/12 10:58:49;;;;;;;2.17;1.50;;;10.00;90.60;;;;;;4962252;28;20082;-69
2022/01/12 11:01:16;;;;;;;2.20;1.45;;;9.80;90.10;;;;;;4971505;28;20019;-69
2022/01/12 11:03:43;;;;;;;2.05;1.33;;;9.90;90.80;;;;;;4968477;28;20369;-69
2022/01/12 11:06:09;;;;;;;3.97;2.13;;;10.00;90.80;;;;;;4976412;28;20447;-69
2022/01/12 11:08:37;;;;;;;2.63;1.40;;;10.00;90.30;;;;;;4969035;28;20031;-69
2022/01/12 11:11:03;;;;;;;2.10;1.48;;;10.00;90.30;;;;;;4968352;28;20023;-69
2022/01/12 11:13:31;;;;;;;2.42;1.60;;;10.10;90.50;;;;;;4973773;28;20085;-69
2022/01/12 11:15:56;;;;;;;2.38;1.60;;;10.10;90.30;;;;;;4974119;28;20074;-69
2022/01/12 11:18:25;;;;;;;2.28;1.83;;;10.00;90.20;;;;;;4962451;28;20089;-69
2022/01/12 11:20:58;;;;;;;2.47;1.50;;;10.00;90.50;;;;;;4967847;28;20019;-69
2022/01/12 11:23:33;;;;;;;2.57;1.50;;;10.10;90.70;;;;;;4967596;28;20027;-71
2022/01/12 11:25:58;;;;;;;2.63;1.60;;;10.20;90.70;;;;;;4969190;28;20023;-76
2022/01/12 11:28:27;;;;;;;2.20;1.60;;;10.40;90.70;;;;;;4963125;28;20031;-75
2022/01/12 11:30:55;;;;;;;3.28;2.25;;;10.40;90.60;;;;;;4964450;28;20050;-77
2022/01/12 11:33:33;;;;;;;3.58;2.35;;;10.30;90.00;;;;;;4975287;28;20031;-75
2022/01/12 11:36:12;;;;;;;3.08;1.90;;;10.20;90.10;;;;;;4964087;28;20027;-77
2022/01/12 11:38:39;;;;;;;2.30;1.52;;;10.20;90.30;;;;;;4972468;28;20113;-76
2022/01/12 11:41:08;;;;;;;3.13;1.90;;;10.20;90.50;;;;;;4970811;28;20102;-73
2022/01/12 11:43:48;;;;;;;2.63;1.90;;;10.40;90.90;;;;;;4974548;28;20029;-76
2022/01/12 11:46:15;;;;;;;2.88;2.05;;;10.50;90.70;;;;;;4964742;28;20046;-72
2022/01/12 11:48:48;;;;;;;2.45;1.55;;;10.70;90.70;;;;;;4958278;28;20031;-74
2022/01/12 11:51:16;;;;;;;2.60;1.60;;;10.70;90.20;;;;;;4972071;28;20066;-73
2022/01/12 11:53:48;;;;;;;2.72;1.90;;;10.90;90.30;;;;;;4974687;28;20145;-74
2022/01/12 11:56:21;;;;;;;3.92;1.90;;;10.90;90.00;;;;;;4969744;28;20525;-74
2022/01/12 11:58:51;;;;;;;3.28;2.40;;;10.70;89.30;;;;;;4964204;28;20030;-76
2022/01/12 12:01:17;;;;;;;2.15;1.75;;;10.70;89.80;;;;;;4955968;28;20560;-74
2022/01/12 12:03:54;;;;;;;2.30;1.70;;;10.60;89.70;;;;;;4963663;28;20111;-73
2022/01/12 12:06:22;;;;;;;3.08;2.20;;;10.60;90.40;;;;;;4968314;28;20426;-74
2022/01/12 12:09:01;;;;;;;4.13;2.50;;;10.50;89.20;;;;;;4965756;28;20035;-74
2022/01/12 12:11:29;;;;;;;3.70;2.30;;;10.40;90.10;;;;;;4963844;28;20117;-73
2022/01/12 12:14:00;;;;;;;2.70;1.90;;;10.50;90.90;;;;;;4966307;28;20031;-73
2022/01/12 12:16:26;;;;;;;3.17;2.00;;;10.70;91.00;;;;;;4973378;28;20511;-69
2022/01/12 12:18:53;;;;;;;2.95;1.95;;;10.90;90.50;;;;;;4974489;28;20057;-69
2022/01/12 12:21:18;;;;;;;2.53;1.95;;;11.00;90.00;;;;;;4974773;28;20489;-69
2022/01/12 12:23:44;;;;;;;3.03;1.88;;;11.00;89.50;;;;;;4964738;28;20042;-70
2022/01/12 12:26:11;;;;;;;2.58;1.80;;;11.10;90.00;;;;;;4967839;28;20030;-70
2022/01/12 12:28:37;;;;;;;3.03;1.75;;;11.10;89.00;;;;;;4973159;28;20035;-69
2022/01/12 12:31:05;;;;;;;2.80;2.10;;;11.10;89.20;;;;;;4973331;28;20014;-68
2022/01/12 12:33:30;;;;;;;3.15;2.08;;;11.10;88.70;;;;;;4973173;28;20027;-71
2022/01/12 12:35:56;;;;;;;3.10;2.13;;;11.20;89.30;;;;;;4973042;28;20370;-70
2022/01/12 12:38:22;;;;;;;2.30;1.83;;;11.10;88.50;;;;;;4972371;28;20489;-70
2022/01/12 12:40:49;;;;;;;2.75;1.83;;;11.10;88.90;;;;;;4972795;28;20025;-70
2022/01/12 12:43:25;;;;;;;2.63;1.92;;;11.10;88.70;;;;;;4972939;28;20026;-70
2022/01/12 12:45:59;;;;;;;2.50;1.75;;;11.20;89.30;;;;;;4953063;28;20133;-69
2022/01/12 12:48:33;;;;;;;2.75;1.80;;;11.30;89.90;;;;;;4972160;28;20027;-69
2022/01/12 12:51:12;;;;;;;2.28;1.67;;;11.50;90.00;;;;;;4955182;28;20572;-69
2022/01/12 12:53:44;;;;;;;2.70;1.83;;;11.60;89.50;;;;;;4969919;28;20027;-69
2022/01/12 12:56:14;;;;;;;2.60;1.80;;;11.60;87.70;;;;;;4972862;28;20027;-68
2022/01/12 12:58:43;;;;;;;2.83;1.90;;;11.50;88.10;;;;;;4970506;28;20122;-73
2022/01/12 13:01:11;;;;;;;2.90;1.75;;;11.60;88.00;;;;;;4972882;28;20505;-71
2022/01/12 13:03:39;;;;;;;2.53;1.85;;;11.50;87.10;;;;;;4967109;28;20089;-69
2022/01/12 13:06:05;;;;;;;2.88;1.85;;;11.50;88.00;;;;;;4968486;28;20062;-70
2022/01/12 13:08:31;;;;;;;2.75;1.65;;;11.50;88.00;;;;;;4970897;28;20158;-70
2022/01/12 13:11:06;;;;;;;3.17;2.00;;;11.60;88.20;;;;;;4971940;28;20023;-70
2022/01/12 13:13:32;;;;;;;4.35;2.13;;;11.70;89.00;;;;;;4971918;28;20026;-69
2022/01/12 13:15:58;;;;;;;2.50;1.98;;;11.80;88.60;;;;;;4972059;28;20038;-69
2022/01/12 13:18:24;;;;;;;2.85;2.00;;;12.10;89.80;;;;;;4971652;28;20030;-70
2022/01/12 13:21:07;;;;;;;5.30;2.13;;;12.30;88.30;;;;;;4953626;28;20027;-68
2022/01/12 13:23:40;;;;;;;2.80;2.00;;;12.30;87.50;;;;;;4971752;28;20031;-68
2022/01/12 13:26:08;;;;;;;2.00;1.80;;;12.40;87.30;;;;;;4971599;28;20031;-70
2022/01/12 13:28:36;;;;;;;3.40;2.10;;;12.40;87.50;;;;;;4971318;28;20660;-69
2022/01/12 13:31:05;;;;;;;2.70;2.03;;;12.60;87.70;;;;;;4969635;28;20023;-69
2022/01/12 13:33:36;;;;;;;3.30;2.20;;;12.60;87.20;;;;;;4971346;28;20530;-69
2022/01/12 13:36:18;;;;;;;3.67;2.20;;;12.60;86.80;;;;;;4971477;28;20054;-69
2022/01/12 13:39:00;;;;;;;2.80;1.90;;;12.40;86.40;;;;;;4948128;28;20055;-68
2022/01/12 13:41:28;;;;;;;3.10;2.20;;;12.30;86.10;;;;;;4968163;28;20027;-68
2022/01/12 13:43:57;;;;;;;2.58;1.80;;;12.30;87.20;;;;;;4970579;28;20114;-69
2022/01/12 13:49:42;;;;;;;2.47;1.73;;;12.30;87.60;;;;;;4970380;28;20070;-70
2022/01/12 13:52:09;;;;;;;2.60;1.88;;;12.40;87.90;;;;;;4971227;28;20054;-69
2022/01/12 13:54:36;;;;;;;3.03;2.10;;;12.50;87.70;;;;;;4971360;28;20058;-69
2022/01/12 13:57:02;;;;;;;3.00;2.28;;;12.60;87.90;;;;;;4970410;28;20031;-68
2022/01/12 13:59:30;;;;;;;4.82;2.65;;;12.70;87.20;;;;;;4971170;28;20033;-68
2022/01/12 14:01:59;;;;;;;4.32;3.05;;;12.60;86.60;;;;;;4969403;28;20038;-68
2022/01/12 14:04:43;;;;;;;3.97;2.70;;;12.50;86.50;;;;;;4970501;28;20019;-67
2022/01/12 14:07:11;;;;;;;;;;;12.50;87.10;;;;;;4953830;28;20062;-67
2022/01/12 14:09:41;;;;;;;3.38;2.70;;;12.50;87.50;;;;;;4970279;28;20337;-69
2022/01/12 14:12:15;;;;;;;5.38;3.00;;;12.50;86.80;;;;;;4971011;28;20532;-70
2022/01/12 14:14:57;;;;;;;4.22;2.72;;;12.40;86.90;;;;;;4970672;28;20560;-70
2022/01/12 14:17:30;;;;;;;3.65;2.80;;;12.40;87.20;;;;;;4969654;28;20488;-67
2022/01/12 14:20:02;;;;;;;3.53;2.40;;;12.40;87.10;;;;;;4969925;28;20027;-69